Rimouski, Canada
Current Conditions -  °F | °C
As of 10:00 PM on Tuesday 21 Oct 2014 (Local Time) from CYYY Reporting Station
Few Clouds Few Clouds  
Wind Chill: 24°   Ceiling: Unl
Heat Index: 30°   Visibility: 30mi
Dew Point: 28°   Wind: 6mph
Humidity: 93%   Direction: 150°SSE
Pressure: 30.31"   Gusts: NA
Location:  48.45°N, 68.52°W
Report Text: CYYY 220200Z 15005KT 30SM FEW070 M01/M02 A3031 RMK AC2 SLP268
Loading
Personal Weather Stations






























Interactive Weather Map
Tropical Storm Tracking
New forecast layout! Learn more

10-Day Weather Forecast

Advertisements
Track Severe Weather on mobile